createdAt,value
2018-07-10T00:00:48.837Z,45.40
2018-07-10T00:03:15.680Z,45.30
2018-07-10T00:05:42.511Z,45.40
2018-07-10T00:08:09.405Z,45.40
2018-07-10T00:10:36.195Z,45.40
2018-07-10T00:13:03.005Z,45.40
2018-07-10T00:15:29.832Z,45.40
2018-07-10T00:17:56.658Z,45.40
2018-07-10T00:22:50.611Z,45.50
2018-07-10T00:25:17.438Z,45.50
2018-07-10T00:27:44.261Z,45.40
2018-07-10T00:30:11.078Z,45.50
2018-07-10T00:35:05.063Z,45.50
2018-07-10T00:37:31.900Z,45.50
2018-07-10T00:39:58.728Z,45.50
2018-07-10T00:42:25.573Z,46.10
2018-07-10T00:44:52.407Z,45.50
2018-07-10T00:47:19.239Z,45.50
2018-07-10T00:49:46.064Z,45.50
2018-07-10T00:52:12.946Z,45.60
2018-07-10T00:54:39.785Z,45.60
2018-07-10T00:57:06.626Z,45.60
2018-07-10T00:59:33.453Z,45.60
2018-07-10T01:02:00.343Z,45.60
2018-07-10T01:04:27.163Z,45.60
2018-07-10T01:06:53.973Z,45.60
2018-07-10T01:09:20.822Z,46.20
2018-07-10T01:11:47.694Z,45.60
2018-07-10T01:14:14.514Z,45.60
2018-07-10T01:16:41.325Z,45.60
2018-07-10T01:19:08.156Z,45.60
2018-07-10T01:21:35.065Z,45.60
2018-07-10T01:24:01.886Z,45.60
2018-07-10T01:26:28.714Z,45.60
2018-07-10T01:28:55.529Z,45.60
2018-07-10T01:31:22.437Z,45.60
2018-07-10T01:33:49.297Z,45.70
2018-07-10T01:36:16.096Z,45.70
2018-07-10T01:38:42.925Z,45.70
2018-07-10T01:41:09.804Z,45.70
2018-07-10T01:43:36.624Z,45.70
2018-07-10T01:46:03.462Z,45.70
2018-07-10T01:48:30.282Z,45.70
2018-07-10T01:50:57.169Z,45.60
2018-07-10T01:53:24.002Z,45.60
2018-07-10T01:55:50.829Z,45.70
2018-07-10T01:58:17.652Z,45.70
2018-07-10T02:00:44.552Z,45.70
2018-07-10T02:03:11.393Z,45.70
2018-07-10T02:05:38.225Z,45.70
2018-07-10T02:08:05.050Z,45.70
2018-07-10T02:10:31.881Z,45.80
2018-07-10T02:12:58.707Z,45.80
2018-07-10T02:15:25.520Z,45.80
2018-07-10T02:17:52.337Z,45.80
2018-07-10T02:20:19.158Z,45.80
2018-07-10T02:22:45.978Z,45.80
2018-07-10T02:25:12.799Z,45.80
2018-07-10T02:27:39.618Z,45.90
2018-07-10T02:30:06.437Z,45.80
2018-07-10T02:32:33.309Z,45.80
2018-07-10T02:35:00.118Z,45.80
2018-07-10T02:37:26.941Z,45.80
2018-07-10T02:39:53.757Z,45.80
2018-07-10T02:44:47.723Z,45.90
2018-07-10T02:47:14.691Z,45.90
2018-07-10T02:49:41.518Z,45.90
2018-07-10T02:52:08.456Z,45.90
2018-07-10T02:54:35.282Z,45.90
2018-07-10T02:57:02.097Z,45.90
2018-07-10T02:59:28.924Z,45.90
2018-07-10T03:01:55.832Z,45.90
2018-07-10T03:04:22.646Z,45.90
2018-07-10T03:06:49.471Z,45.90
2018-07-10T03:09:16.299Z,45.90
2018-07-10T03:11:43.209Z,45.90
2018-07-10T03:14:10.011Z,46.00
2018-07-10T03:16:36.844Z,46.00
2018-07-10T03:19:03.660Z,46.00
2018-07-10T03:21:30.573Z,46.00
2018-07-10T03:23:57.409Z,46.00
2018-07-10T03:26:24.227Z,46.00
2018-07-10T03:28:51.047Z,46.00
2018-07-10T03:31:17.949Z,46.00
2018-07-10T03:33:44.770Z,46.00
2018-07-10T03:36:11.586Z,46.00
2018-07-10T03:38:38.409Z,46.10
2018-07-10T03:41:05.319Z,46.20
2018-07-10T03:43:32.146Z,46.00
2018-07-10T03:45:58.980Z,46.10
2018-07-10T03:48:25.832Z,46.00
2018-07-10T03:50:52.689Z,46.00
2018-07-10T03:53:19.507Z,46.60
2018-07-10T03:55:46.337Z,46.00
2018-07-10T03:58:13.176Z,46.10
2018-07-10T04:00:40.057Z,46.00
2018-07-10T04:03:06.891Z,46.00
2018-07-10T04:05:33.714Z,46.00
2018-07-10T04:08:00.535Z,46.10
2018-07-10T04:10:27.469Z,46.10
2018-07-10T04:12:54.725Z,46.10
2018-07-10T04:15:21.518Z,46.10
2018-07-10T04:17:48.353Z,46.10
2018-07-10T04:20:15.183Z,46.20
2018-07-10T04:22:42.012Z,46.20
2018-07-10T04:25:08.825Z,46.20
2018-07-10T04:27:35.656Z,46.20
2018-07-10T04:30:02.532Z,46.10
2018-07-10T04:32:29.425Z,46.20
2018-07-10T04:34:56.246Z,46.10
2018-07-10T04:37:23.085Z,46.10
2018-07-10T04:39:49.909Z,46.20
2018-07-10T04:42:16.818Z,46.20
2018-07-10T04:44:43.735Z,46.30
2018-07-10T04:47:10.802Z,46.30
2018-07-10T04:49:37.610Z,46.30
2018-07-10T04:52:04.581Z,46.40
2018-07-10T04:54:31.404Z,46.40
2018-07-10T04:56:58.238Z,46.50
2018-07-10T04:59:25.105Z,46.40
2018-07-10T05:01:51.958Z,46.50
2018-07-10T05:04:18.787Z,46.40
2018-07-10T05:06:45.604Z,46.30
2018-07-10T05:09:12.458Z,46.40
2018-07-10T05:11:39.330Z,46.40
2018-07-10T05:14:06.157Z,46.40
2018-07-10T05:16:32.988Z,46.40
2018-07-10T05:18:59.809Z,46.40
2018-07-10T05:21:26.699Z,46.30
2018-07-10T05:23:53.531Z,45.90
2018-07-10T05:26:20.347Z,46.00
2018-07-10T05:28:47.215Z,46.20
2018-07-10T05:31:14.063Z,47.00
2018-07-10T05:33:40.893Z,46.40
2018-07-10T05:36:07.726Z,46.30
2018-07-10T05:38:34.583Z,46.40
2018-07-10T05:41:01.443Z,46.40
2018-07-10T05:43:28.262Z,46.50
2018-07-10T05:45:55.084Z,46.00
2018-07-10T05:48:21.918Z,46.10
2018-07-10T05:50:48.804Z,46.30
2018-07-10T05:53:15.634Z,46.30
2018-07-10T05:55:42.455Z,46.40
2018-07-10T05:58:09.286Z,46.50
2018-07-10T06:00:36.220Z,46.50
2018-07-10T06:03:03.061Z,46.50
2018-07-10T06:05:29.894Z,46.50
2018-07-10T06:07:56.706Z,46.50
2018-07-10T06:10:23.554Z,46.50
2018-07-10T06:12:50.359Z,46.50
2018-07-10T06:15:17.219Z,46.50
2018-07-10T06:17:44.023Z,46.50
2018-07-10T06:20:10.839Z,46.50
2018-07-10T06:22:37.687Z,46.60
2018-07-10T06:25:04.690Z,46.60
2018-07-10T06:27:31.577Z,46.70
2018-07-10T06:32:25.547Z,46.70
2018-07-10T06:34:52.374Z,46.50
2018-07-10T06:37:19.312Z,46.50
2018-07-10T06:39:46.192Z,46.50
2018-07-10T06:42:13.128Z,46.50
2018-07-10T06:44:39.950Z,46.60
2018-07-10T06:47:06.774Z,46.70
2018-07-10T06:49:33.598Z,46.70
2018-07-10T06:52:00.496Z,46.80
2018-07-10T06:54:27.319Z,46.80
2018-07-10T06:56:54.137Z,46.10
2018-07-10T06:59:20.966Z,46.90
2018-07-10T07:01:47.866Z,47.30
2018-07-10T07:04:15.302Z,47.90
2018-07-10T07:06:42.134Z,47.90
2018-07-10T07:09:08.979Z,48.30
2018-07-10T07:11:35.861Z,48.10
2018-07-10T07:14:02.674Z,48.50
2018-07-10T07:16:29.507Z,48.90
2018-07-10T07:18:56.334Z,49.00
2018-07-10T07:21:23.235Z,49.10
2018-07-10T07:23:50.121Z,49.10
2018-07-10T07:26:16.909Z,49.10
2018-07-10T07:28:43.730Z,49.40
2018-07-10T07:31:10.602Z,49.40
2018-07-10T07:33:37.425Z,49.60
2018-07-10T07:36:04.262Z,49.70
2018-07-10T07:38:31.091Z,49.80
2018-07-10T07:40:57.973Z,49.60
2018-07-10T07:43:24.806Z,49.80
2018-07-10T07:45:51.635Z,50.20
2018-07-10T07:48:18.468Z,50.00
2018-07-10T07:50:45.334Z,50.30
2018-07-10T07:53:12.155Z,50.30
2018-07-10T07:55:38.991Z,50.70
2018-07-10T07:58:05.983Z,50.80
2018-07-10T08:00:32.968Z,50.40
2018-07-10T08:02:59.635Z,50.80
2018-07-10T08:05:26.458Z,51.30
2018-07-10T08:07:53.292Z,50.60
2018-07-10T08:10:20.122Z,50.50
2018-07-10T08:12:46.944Z,50.70
2018-07-10T08:17:40.905Z,50.50
2018-07-10T08:20:07.726Z,50.70
2018-07-10T08:22:34.702Z,50.60
2018-07-10T08:25:01.596Z,50.40
2018-07-10T08:27:28.406Z,50.30
2018-07-10T08:29:55.220Z,50.40
2018-07-10T08:32:22.387Z,50.60
2018-07-10T08:34:49.222Z,50.90
2018-07-10T08:37:16.043Z,50.60
2018-07-10T08:39:42.870Z,50.60
2018-07-10T08:42:09.858Z,50.80
2018-07-10T08:44:36.684Z,50.80
2018-07-10T08:47:03.516Z,50.80
2018-07-10T08:49:30.351Z,50.40
2018-07-10T08:51:57.235Z,50.60
2018-07-10T08:54:24.059Z,50.60
2018-07-10T08:56:50.897Z,51.00
2018-07-10T08:59:18.925Z,50.90
2018-07-10T09:01:45.835Z,50.80
2018-07-10T09:04:12.682Z,50.90
2018-07-10T09:06:39.561Z,50.70
2018-07-10T09:09:06.375Z,50.40
2018-07-10T09:11:33.429Z,50.50
2018-07-10T09:14:00.285Z,50.40
2018-07-10T09:16:27.084Z,50.40
2018-07-10T09:18:53.919Z,50.10
2018-07-10T09:21:20.779Z,50.40
2018-07-10T09:23:47.606Z,50.20
2018-07-10T09:26:14.439Z,50.10
2018-07-10T09:28:41.279Z,50.40
2018-07-10T09:31:08.158Z,50.30
2018-07-10T09:33:35.125Z,50.40
2018-07-10T09:36:01.811Z,50.10
2018-07-10T09:38:28.643Z,50.30
2018-07-10T09:40:55.525Z,49.80
2018-07-10T09:43:22.359Z,49.80
2018-07-10T09:45:49.178Z,50.00
2018-07-10T09:48:16.017Z,49.80
2018-07-10T09:50:42.900Z,49.70
2018-07-10T09:53:09.738Z,49.30
2018-07-10T09:55:36.559Z,49.50
2018-07-10T09:58:03.407Z,49.10
2018-07-10T10:00:30.239Z,49.80
2018-07-10T10:02:57.066Z,49.50
2018-07-10T10:05:23.911Z,49.80
2018-07-10T10:07:50.735Z,50.10
2018-07-10T10:10:17.542Z,50.20
2018-07-10T10:12:44.391Z,49.60
2018-07-10T10:15:11.207Z,49.40
2018-07-10T10:17:38.058Z,50.00
2018-07-10T10:20:04.895Z,50.20
2018-07-10T10:22:31.849Z,49.50
2018-07-10T10:24:58.692Z,49.20
2018-07-10T10:27:25.525Z,49.00
2018-07-10T10:29:52.353Z,49.00
2018-07-10T10:32:19.391Z,49.40
2018-07-10T10:34:46.207Z,49.50
2018-07-10T10:37:13.030Z,50.20
2018-07-10T10:39:39.855Z,50.20
2018-07-10T10:42:06.806Z,50.30
2018-07-10T10:44:33.633Z,50.50
2018-07-10T10:47:00.497Z,50.50
2018-07-10T10:49:27.350Z,50.60
2018-07-10T10:51:54.178Z,50.60
2018-07-10T10:54:21.021Z,50.70
2018-07-10T10:56:47.849Z,51.00
2018-07-10T10:59:14.716Z,50.60
2018-07-10T11:01:41.539Z,50.40
2018-07-10T11:04:08.371Z,50.10
2018-07-10T11:06:35.206Z,49.80
2018-07-10T11:09:02.026Z,50.20
2018-07-10T11:11:28.926Z,50.70
2018-07-10T11:13:55.743Z,52.00
2018-07-10T11:16:22.568Z,52.90
2018-07-10T11:18:49.391Z,53.60
2018-07-10T11:21:16.294Z,53.70
2018-07-10T11:23:43.113Z,53.80
2018-07-10T11:26:09.932Z,53.80
2018-07-10T11:28:36.762Z,53.70
2018-07-10T11:31:03.655Z,53.90
2018-07-10T11:33:30.478Z,54.10
2018-07-10T11:35:57.305Z,54.40
2018-07-10T11:38:24.126Z,54.80
2018-07-10T11:40:51.030Z,54.70
2018-07-10T11:43:17.845Z,54.50
2018-07-10T11:45:44.703Z,54.90
2018-07-10T11:48:11.514Z,54.80
2018-07-10T11:50:38.405Z,55.60
2018-07-10T11:53:05.228Z,54.70
2018-07-10T11:55:32.059Z,54.70
2018-07-10T11:57:58.887Z,54.80
2018-07-10T12:00:25.726Z,55.40
2018-07-10T12:02:52.560Z,55.70
2018-07-10T12:05:19.390Z,56.40
2018-07-10T12:07:46.227Z,55.60
2018-07-10T12:10:13.045Z,55.20
2018-07-10T12:12:39.904Z,54.60
2018-07-10T12:15:06.744Z,54.80
2018-07-10T12:17:33.546Z,55.80
2018-07-10T12:20:00.358Z,55.80
2018-07-10T12:22:27.359Z,55.50
2018-07-10T12:24:54.179Z,55.60
2018-07-10T12:27:21.022Z,55.10
2018-07-10T12:29:47.841Z,54.90
2018-07-10T12:32:15.256Z,55.50
2018-07-10T12:34:42.162Z,55.00
2018-07-10T12:37:09.000Z,54.80
2018-07-10T12:39:35.834Z,55.20
2018-07-10T12:42:02.710Z,54.40
2018-07-10T12:44:29.549Z,53.40
2018-07-10T12:46:56.369Z,54.10
2018-07-10T12:49:23.267Z,54.00
2018-07-10T12:51:50.084Z,53.40
2018-07-10T12:54:16.911Z,53.20
2018-07-10T12:56:43.738Z,53.60
2018-07-10T12:59:10.570Z,53.20
2018-07-10T13:01:37.458Z,52.70
2018-07-10T13:04:04.279Z,53.20
2018-07-10T13:06:31.113Z,52.90
2018-07-10T13:08:57.924Z,52.50
2018-07-10T13:11:24.830Z,51.90
2018-07-10T13:13:51.649Z,51.90
2018-07-10T13:16:18.479Z,51.70
2018-07-10T13:18:45.306Z,51.70
2018-07-10T13:21:12.212Z,51.20
2018-07-10T13:23:39.029Z,50.70
2018-07-10T13:26:05.953Z,50.20
2018-07-10T13:28:32.812Z,50.40
2018-07-10T13:30:59.777Z,50.00
2018-07-10T13:33:26.605Z,50.40
2018-07-10T13:35:53.488Z,50.40
2018-07-10T13:38:20.259Z,50.50
2018-07-10T13:40:47.146Z,50.40
2018-07-10T13:43:13.983Z,50.20
2018-07-10T13:45:40.803Z,50.50
2018-07-10T13:48:07.626Z,50.50
2018-07-10T13:50:34.517Z,50.00
2018-07-10T13:53:01.349Z,49.90
2018-07-10T13:55:28.188Z,49.60
2018-07-10T13:57:55.013Z,49.70
2018-07-10T14:00:21.850Z,49.70
2018-07-10T14:02:48.673Z,49.40
2018-07-10T14:05:15.508Z,49.00
2018-07-10T14:07:42.346Z,49.00
2018-07-10T14:10:09.169Z,49.30
2018-07-10T14:12:36.014Z,49.00
2018-07-10T14:15:02.829Z,49.30
2018-07-10T14:17:29.660Z,47.40
2018-07-10T14:19:56.482Z,47.70
2018-07-10T14:22:23.530Z,47.70
2018-07-10T14:24:50.302Z,47.50
2018-07-10T14:27:17.133Z,47.30
2018-07-10T14:29:43.958Z,47.10
2018-07-10T14:32:10.837Z,46.90
2018-07-10T14:34:37.673Z,47.30
2018-07-10T14:37:04.501Z,47.10
2018-07-10T14:39:31.330Z,46.60
2018-07-10T14:41:58.229Z,47.20
2018-07-10T14:44:25.047Z,46.80
2018-07-10T14:46:51.870Z,46.10
2018-07-10T14:49:18.706Z,46.10
2018-07-10T14:51:45.592Z,45.70
2018-07-10T14:54:12.454Z,46.40
2018-07-10T14:56:39.252Z,46.50
2018-07-10T14:59:06.128Z,46.30
2018-07-10T15:01:32.956Z,46.30
2018-07-10T15:03:59.785Z,46.30
2018-07-10T15:06:26.611Z,46.40
2018-07-10T15:08:53.433Z,46.60
2018-07-10T15:11:20.349Z,46.80
2018-07-10T15:13:47.173Z,46.80
2018-07-10T15:16:14.004Z,46.80
2018-07-10T15:18:40.822Z,46.80
2018-07-10T15:21:07.702Z,47.00
2018-07-10T15:23:34.539Z,47.10
2018-07-10T15:26:01.343Z,47.00
2018-07-10T15:28:28.150Z,46.80
2018-07-10T15:33:22.128Z,46.90
2018-07-10T15:35:48.972Z,46.80
2018-07-10T15:38:15.795Z,46.80
2018-07-10T15:40:42.679Z,46.80
2018-07-10T15:43:09.498Z,46.90
2018-07-10T15:45:36.323Z,46.90
2018-07-10T15:48:03.146Z,47.00
2018-07-10T15:50:30.024Z,47.00
2018-07-10T15:52:56.837Z,47.10
2018-07-10T15:55:24.336Z,47.10
2018-07-10T15:57:51.130Z,47.10
2018-07-10T16:00:17.962Z,47.10
2018-07-10T16:02:44.876Z,47.20
2018-07-10T16:05:11.680Z,47.20
2018-07-10T16:07:38.507Z,47.20
2018-07-10T16:10:05.315Z,47.10
2018-07-10T16:12:32.132Z,47.20
2018-07-10T16:14:58.978Z,47.30
2018-07-10T16:17:26.734Z,48.10
2018-07-10T16:19:53.542Z,47.90
2018-07-10T16:22:20.414Z,47.40
2018-07-10T16:24:47.250Z,47.30
2018-07-10T16:27:14.090Z,47.30
2018-07-10T16:29:40.913Z,47.30
2018-07-10T16:32:07.789Z,47.20
2018-07-10T16:34:34.608Z,47.20
2018-07-10T16:37:01.434Z,47.30
2018-07-10T16:39:28.269Z,47.30
2018-07-10T16:41:55.164Z,45.50
2018-07-10T16:44:21.990Z,43.60
2018-07-10T16:46:48.801Z,43.80
2018-07-10T16:49:15.627Z,43.80
2018-07-10T16:51:42.583Z,43.70
2018-07-10T16:54:09.411Z,43.10
2018-07-10T16:56:36.243Z,43.40
2018-07-10T16:59:03.072Z,42.70
2018-07-10T17:01:29.979Z,42.60
2018-07-10T17:03:57.147Z,42.20
2018-07-10T17:06:23.996Z,42.00
2018-07-10T17:08:50.884Z,41.70
2018-07-10T17:11:17.685Z,42.30
2018-07-10T17:13:44.726Z,42.60
2018-07-10T17:16:11.617Z,42.10
2018-07-10T17:18:38.456Z,42.00
2018-07-10T17:21:05.470Z,42.30
2018-07-10T17:23:32.297Z,42.50
2018-07-10T17:25:59.143Z,42.20
2018-07-10T17:28:25.960Z,42.00
2018-07-10T17:30:52.848Z,42.30
2018-07-10T17:33:19.678Z,41.50
2018-07-10T17:35:46.502Z,41.20
2018-07-10T17:38:13.587Z,41.20
2018-07-10T17:40:41.438Z,41.40
2018-07-10T17:43:08.261Z,41.40
2018-07-10T17:45:35.100Z,41.00
2018-07-10T17:48:01.932Z,41.20
2018-07-10T17:50:29.261Z,41.00
2018-07-10T17:52:56.066Z,41.20
2018-07-10T17:55:23.693Z,40.40
2018-07-10T17:57:50.514Z,40.60
2018-07-10T18:00:17.390Z,40.80
2018-07-10T18:02:44.230Z,40.70
2018-07-10T18:05:11.572Z,40.40
2018-07-10T18:07:38.383Z,40.90
2018-07-10T18:10:05.206Z,40.50
2018-07-10T18:12:32.043Z,40.90
2018-07-10T18:14:58.894Z,42.10
2018-07-10T18:17:26.760Z,42.40
2018-07-10T18:22:46.936Z,42.50
2018-07-10T18:25:23.687Z,42.70
2018-07-10T18:27:50.518Z,43.00
2018-07-10T18:30:17.460Z,42.00
2018-07-10T18:32:44.255Z,41.10
2018-07-10T18:35:11.107Z,40.70
2018-07-10T18:37:37.956Z,40.70
2018-07-10T18:40:04.780Z,40.20
2018-07-10T18:42:31.607Z,41.50
2018-07-10T18:44:58.398Z,42.20
2018-07-10T18:47:26.566Z,42.30
2018-07-10T18:49:53.370Z,42.40
2018-07-10T18:52:20.240Z,42.30
2018-07-10T18:54:47.126Z,42.40
2018-07-10T18:57:13.928Z,42.60
2018-07-10T19:02:08.015Z,43.00
2018-07-10T19:04:34.860Z,43.30
2018-07-10T19:07:01.699Z,43.40
2018-07-10T19:09:28.536Z,43.50
2018-07-10T19:11:55.402Z,43.60
2018-07-10T19:14:22.218Z,43.70
2018-07-10T19:16:49.037Z,43.90
2018-07-10T19:19:15.881Z,43.90
2018-07-10T19:21:42.754Z,44.10
2018-07-10T19:24:09.605Z,44.00
2018-07-10T19:26:36.445Z,44.00
2018-07-10T19:29:03.285Z,44.20
2018-07-10T19:31:30.140Z,44.20
2018-07-10T19:33:56.971Z,44.20
2018-07-10T19:36:23.802Z,44.40
2018-07-10T19:38:50.624Z,44.50
2018-07-10T19:41:17.498Z,44.60
2018-07-10T19:43:44.311Z,44.50
2018-07-10T19:46:11.150Z,44.60
2018-07-10T19:48:37.995Z,44.60
2018-07-10T19:51:04.970Z,44.60
2018-07-10T19:53:31.789Z,44.60
2018-07-10T19:55:58.615Z,44.60
2018-07-10T19:58:25.440Z,44.70
2018-07-10T20:00:53.370Z,44.80
2018-07-10T20:03:21.740Z,44.90
2018-07-10T20:05:47.049Z,44.90
2018-07-10T20:08:13.873Z,45.50
2018-07-10T20:10:40.744Z,45.00
2018-07-10T20:13:07.579Z,45.70
2018-07-10T20:15:34.399Z,45.00
2018-07-10T20:18:01.228Z,45.10
2018-07-10T20:20:28.216Z,45.20
2018-07-10T20:22:55.235Z,45.20
2018-07-10T20:25:22.026Z,45.20
2018-07-10T20:27:49.037Z,45.30
2018-07-10T20:30:15.856Z,45.30
2018-07-10T20:32:42.700Z,43.90
2018-07-10T20:35:09.537Z,44.20
2018-07-10T20:37:36.364Z,44.60
2018-07-10T20:40:03.188Z,45.00
2018-07-10T20:42:30.013Z,45.20
2018-07-10T20:44:56.864Z,45.30
2018-07-10T20:47:24.096Z,45.40
2018-07-10T20:49:51.009Z,45.50
2018-07-10T20:52:17.883Z,45.50
2018-07-10T20:54:44.702Z,45.50
2018-07-10T20:57:11.532Z,45.50
2018-07-10T20:59:38.350Z,45.50
2018-07-10T21:02:05.265Z,45.60
2018-07-10T21:04:32.096Z,45.60
2018-07-10T21:06:58.924Z,45.60
2018-07-10T21:09:25.744Z,45.60
2018-07-10T21:11:52.626Z,45.70
2018-07-10T21:14:19.448Z,45.50
2018-07-10T21:16:46.274Z,45.60
2018-07-10T21:19:13.127Z,45.60
2018-07-10T21:21:39.997Z,45.60
2018-07-10T21:24:06.883Z,45.70
2018-07-10T21:26:33.700Z,45.80
2018-07-10T21:29:00.539Z,45.70
2018-07-10T21:31:27.367Z,45.70
2018-07-10T21:33:54.206Z,45.80
2018-07-10T21:36:21.039Z,45.80
2018-07-10T21:38:47.874Z,45.80
2018-07-10T21:41:14.738Z,45.80
2018-07-10T21:43:41.558Z,45.80
2018-07-10T21:46:08.389Z,45.90
2018-07-10T21:48:35.303Z,45.90
2018-07-10T21:51:02.110Z,45.90
2018-07-10T21:53:28.938Z,45.90
2018-07-10T21:55:55.762Z,45.90
2018-07-10T21:58:22.595Z,45.90
2018-07-10T22:00:49.496Z,45.90
2018-07-10T22:03:16.316Z,45.90
2018-07-10T22:05:43.142Z,45.90
2018-07-10T22:08:09.976Z,46.00
2018-07-10T22:10:36.901Z,45.90
2018-07-10T22:13:03.705Z,45.90
2018-07-10T22:15:30.526Z,46.00
2018-07-10T22:17:57.355Z,46.00
2018-07-10T22:20:24.184Z,46.00
2018-07-10T22:22:51.008Z,46.00
2018-07-10T22:25:17.828Z,46.00
2018-07-10T22:27:44.774Z,46.10
2018-07-10T22:30:11.595Z,46.10
2018-07-10T22:32:38.416Z,46.10
2018-07-10T22:35:05.249Z,46.00
2018-07-10T22:37:32.082Z,46.10
2018-07-10T22:39:58.914Z,46.10
2018-07-10T22:42:25.823Z,46.10
2018-07-10T22:44:52.632Z,46.10
2018-07-10T22:47:19.450Z,46.10
2018-07-10T22:49:46.276Z,46.10
2018-07-10T22:52:13.186Z,46.20
2018-07-10T22:54:40.013Z,46.10
2018-07-10T22:57:06.895Z,46.20
2018-07-10T22:59:33.735Z,46.20
2018-07-10T23:02:00.558Z,46.20
2018-07-10T23:04:27.405Z,46.20
2018-07-10T23:06:54.225Z,46.20
2018-07-10T23:09:21.045Z,46.20
2018-07-10T23:11:47.944Z,46.30
2018-07-10T23:14:14.759Z,46.30
2018-07-10T23:16:41.583Z,46.20
2018-07-10T23:19:08.418Z,46.30
2018-07-10T23:21:36.377Z,46.30
2018-07-10T23:24:03.157Z,46.30
2018-07-10T23:26:30.001Z,46.30
2018-07-10T23:28:56.822Z,46.30
2018-07-10T23:31:23.701Z,46.30
2018-07-10T23:33:50.519Z,46.20
2018-07-10T23:36:17.352Z,46.20
2018-07-10T23:38:44.173Z,46.30
2018-07-10T23:41:11.066Z,46.30
2018-07-10T23:43:37.890Z,46.30
2018-07-10T23:46:04.723Z,46.30
2018-07-10T23:48:31.560Z,46.30
2018-07-10T23:50:58.441Z,46.30
2018-07-10T23:53:25.285Z,46.30
2018-07-10T23:55:52.096Z,46.30
2018-07-10T23:58:18.914Z,46.30
